METAR Data
IDs: Format: Raw Decoded Include TAF

Data at: 1340 UTC 14 Dec 2019

KELD 141253Z AUTO 00000KT 1/4SM FG VV002 08/08 A2986 RMK AO2 SLP112 T00780078
KELD 141153Z AUTO 00000KT 1/4SM FG VV002 08/08 A2984 RMK AO2 SLP104 T00830083 10089 20067 55001
KELD 141139Z AUTO 25003KT 1/4SM FG VV002 08/08 A2984 RMK AO2 T00830083
KELD 141119Z AUTO 18004KT 1/2SM FG VV002 08/08 A2983 RMK AO2 T00830083
KELD 141053Z AUTO 19003KT 1/4SM FG VV002 09/09 A2984 RMK AO2 SLP103 T00890089
KELD 141045Z AUTO 20004KT 1/4SM FG VV002 09/09 A2985 RMK AO2 T00890089
KELD 140953Z AUTO 26004KT 3/4SM BR VV002 09/09 A2985 RMK AO2 SLP105 T00890089
KELD 140853Z AUTO 00000KT 1/4SM FG VV002 09/09 A2984 RMK AO2 SLP103 T00890089 58002
KELD 140753Z AUTO 00000KT 1/4SM FG VV002 08/08 A2985 RMK AO2 SLP108 T00830083
KELD 140740Z AUTO 00000KT 1/4SM FG VV003 08/08 A2985 RMK AO2 T00830083
KELD 140659Z AUTO 00000KT 3/4SM BR OVC003 08/08 A2985 RMK AO2 T00780078
KELD 140653Z AUTO 00000KT 2 1/2SM BR OVC003 08/08 A2985 RMK AO2 SLP106 T00780078
KELD 140553Z AUTO 00000KT 7SM OVC008 08/08 A2984 RMK AO2 SLP105 T00780078 10100 20056 401500011 58003
KELD 140511Z AUTO 00000KT 8SM OVC009 07/07 A2985 RMK AO2 T00670067
KELD 140504Z AUTO 00000KT 2SM BR OVC009 06/06 A2985 RMK AO2 T00610061
KELD 140500Z AUTO 00000KT 3/4SM BR OVC009 06/06 A2985 RMK AO2 T00610061
KELD 140453Z AUTO 00000KT 1SM BR OVC009 06/06 A2985 RMK AO2 SLP108 T00610061
KELD 140451Z AUTO 00000KT 1 1/4SM BR OVC009 06/06 A2985 RMK AO2
KELD 140443Z AUTO 00000KT 3/4SM BR BKN006 OVC011 06/06 A2985 RMK AO2 T00610061
KELD 140436Z AUTO 00000KT 1/4SM FG BKN006 OVC011 06/06 A2985 RMK AO2 T00610061
KELD 140410Z AUTO 00000KT 1/2SM FG VV002 06/06 A2986 RMK AO2 T00560056
KELD 140353Z AUTO 00000KT 1/4SM FG VV001 06/06 A2985 RMK AO2 SLP109 T00610061
KELD 140344Z AUTO 00000KT 1/4SM FG VV001 07/07 A2985 RMK AO2 T00670067
KELD 140327Z AUTO 00000KT 3/4SM BR VV002 07/07 A2985 RMK AO2 T00670067
KELD 140320Z AUTO 00000KT 1SM BR VV003 06/06 A2985 RMK AO2 VIS 1/2V5 T00610061
KELD 140317Z AUTO 00000KT 1 3/4SM BR FEW038 07/07 A2985 RMK AO2 T00670067
KELD 140306Z AUTO 00000KT 3SM BR SCT038 07/07 A2985 RMK AO2 T00670067
KELD 140253Z AUTO 00000KT 1 3/4SM BR BKN038 08/08 A2985 RMK AO2 SLP109 T00780078 50003
KELD 140153Z AUTO 05003KT 9SM BKN046 09/09 A2986 RMK AO2 SLP110 T00940089
KELD 140053Z AUTO 00000KT 10SM BKN038 09/09 A2986 RMK AO2 SLP110 T00890089
KELD 132353Z AUTO 02003KT 10SM SCT060 10/09 A2985 RMK AO2 SLP106 T01000089 10150 20100 53006
KELD 132253Z AUTO 11004KT 10SM CLR 12/09 A2982 RMK AO2 SLP099 T01220094
KELD 132153Z AUTO 10007KT 10SM OVC050 14/09 A2982 RMK AO2 SLP097 T01390094
KELD 132122Z AUTO 10007KT 10SM SCT029 BKN035 BKN055 15/09 A2982 RMK AO2 T01500094
KELD 132109Z AUTO 09005KT 10SM BKN029 OVC039 14/09 A2983 RMK AO2 T01440094
KELD 132053Z AUTO 11006KT 10SM FEW030 BKN040 14/09 A2983 RMK AO2 SLP099 T01440094 56028
KELD 131953Z AUTO 10008KT 10SM SCT029 SCT042 OVC060 14/09 A2984 RMK AO2 SLP104 T01390094
KELD 131853Z AUTO 09005KT 10SM SCT035 OVC045 13/08 A2987 RMK AO2 SLP115 T01330083 $
KELD 131803Z AUTO 13003KT 10SM SCT026 OVC036 12/08 A2990 RMK AO2 T01220078 $
KELD 131753Z AUTO 14003KT 10SM BKN028 OVC035 12/08 A2991 RMK AO2 PRESFR SLP129 T01220083 10122 20011 56023 $
KELD 131751Z AUTO 12003KT 10SM BKN029 OVC035 12/08 A2991 RMK AO2 PRESFR $
KELD 131553Z AUTO 00000KT 10SM OVC040 08/06 A2998 RMK AO2 SLP152 T00780061 $
KELD 131453Z AUTO 00000KT 10SM OVC037 06/06 A2998 RMK AO2 SLP152 T00610056 58007
KELD 131353Z AUTO 00000KT 10SM OVC035 04/03 A2999 RMK AO2 SLP155 T00390033
KELD 131253Z AUTO 00000KT 10SM FEW037 02/02 A3000 RMK AO2 SLP159 T00170017
KELD 131153Z AUTO 00000KT 10SM SCT037 02/02 A3000 RMK AO2 SLP159 T00220022 10033 20011 56016
KELD 131053Z AUTO 00000KT 10SM BKN080 02/02 A3001 RMK AO2 SLP163 T00220022
KELD 130953Z AUTO 00000KT 10SM CLR 03/03 A3002 RMK AO2 SLP165 T00280028
KELD 130853Z AUTO 00000KT 10SM BKN090 03/03 A3005 RMK AO2 SLP174 T00330028 58015
KELD 130753Z AUTO 00000KT 10SM BKN090 03/02 A3007 RMK AO2 SLP182 T00280022
KELD 130653Z AUTO 00000KT 10SM BKN095 02/02 A3008 RMK AO2 SLP186 T00220017
KELD 130553Z AUTO 00000KT 10SM SCT095 01/01 A3009 RMK AO2 SLP190 T00110011 10056 20011 401281028 56012
KELD 130453Z AUTO 00000KT 10SM CLR 01/01 A3011 RMK AO2 SLP194 T00110006
KELD 130353Z AUTO 00000KT 10SM CLR 01/01 A3011 RMK AO2 SLP198 T00110011
KELD 130253Z AUTO 00000KT 10SM CLR 02/02 A3013 RMK AO2 SLP203 T00220017 58010
KELD 130153Z AUTO 00000KT 10SM CLR 02/02 A3015 RMK AO2 SLP211 T00220017